createdAt,value
2023-09-23T00:02:26.242Z,96387.16
2023-09-23T00:04:53.073Z,96397.09
2023-09-23T00:07:19.792Z,96398.66
2023-09-23T00:09:46.442Z,96400.31
2023-09-23T00:12:13.688Z,96399.63
2023-09-23T00:14:40.278Z,96402.66
2023-09-23T00:17:07.466Z,96407.19
2023-09-23T00:19:35.761Z,96401.34
2023-09-23T00:22:03.562Z,96407.44
2023-09-23T00:24:31.064Z,96407.84
2023-09-23T00:27:00.917Z,96406.97
2023-09-23T00:29:30.260Z,96408.25
2023-09-23T00:31:58.656Z,96415.47
2023-09-23T00:34:25.384Z,96409.63
2023-09-23T00:36:52.478Z,96414.00
2023-09-23T00:39:19.313Z,96420.19
2023-09-23T00:41:46.122Z,96423.13
2023-09-23T00:44:12.955Z,96416.44
2023-09-23T00:46:43.738Z,96427.16
2023-09-23T00:49:11.045Z,96425.94
2023-09-23T00:51:38.977Z,96419.00
2023-09-23T00:54:21.490Z,96426.66
2023-09-23T00:56:49.250Z,96425.84
2023-09-23T00:59:18.515Z,96433.91
2023-09-23T01:01:49.613Z,96434.09
2023-09-23T01:04:16.926Z,96437.69
2023-09-23T01:06:44.650Z,96433.50
2023-09-23T01:09:17.469Z,96434.09
2023-09-23T01:11:44.308Z,96434.63
2023-09-23T01:14:11.984Z,96435.34
2023-09-23T01:16:39.395Z,96445.63
2023-09-23T01:19:06.638Z,96437.50
2023-09-23T01:21:33.323Z,96435.72
2023-09-23T01:23:59.876Z,96444.78
2023-09-23T01:26:26.705Z,96452.34
2023-09-23T01:28:53.470Z,96446.56
2023-09-23T01:31:23.674Z,96457.78
2023-09-23T01:33:51.872Z,96462.53
2023-09-23T01:36:18.908Z,96468.78
2023-09-23T01:38:45.663Z,96470.78
2023-09-23T01:41:12.602Z,96469.19
2023-09-23T01:43:39.298Z,96475.41
2023-09-23T01:46:07.930Z,96467.91
2023-09-23T01:48:34.892Z,96473.66
2023-09-23T01:51:01.720Z,96470.66
2023-09-23T01:53:29.148Z,96476.78
2023-09-23T01:55:56.138Z,96483.53
2023-09-23T01:58:23.886Z,96480.84
2023-09-23T02:00:53.177Z,96489.97
2023-09-23T02:03:29.361Z,96486.41
2023-09-23T02:05:56.979Z,96494.44
2023-09-23T02:08:23.658Z,96493.13
2023-09-23T02:10:50.531Z,96497.66
2023-09-23T02:13:17.920Z,96495.47
2023-09-23T02:15:46.823Z,96501.72
2023-09-23T02:18:15.458Z,96504.81
2023-09-23T02:20:42.395Z,96504.75
2023-09-23T02:23:10.182Z,96503.44
2023-09-23T02:25:38.544Z,96503.88
2023-09-23T02:28:05.322Z,96508.28
2023-09-23T02:30:33.756Z,96508.84
2023-09-23T02:33:00.520Z,96512.09
2023-09-23T02:35:27.273Z,96509.03
2023-09-23T02:37:54.527Z,96512.63
2023-09-23T02:40:21.745Z,96515.94
2023-09-23T02:42:52.839Z,96522.16
2023-09-23T02:45:21.718Z,96521.19
2023-09-23T02:47:48.462Z,96526.53
2023-09-23T02:50:15.687Z,96515.13
2023-09-23T02:52:45.794Z,96529.03
2023-09-23T02:55:14.180Z,96534.88
2023-09-23T02:57:42.583Z,96524.38
2023-09-23T03:00:21.591Z,96529.94
2023-09-23T03:02:56.213Z,96531.81
2023-09-23T03:05:28.518Z,96531.72
2023-09-23T03:08:00.043Z,96538.34
2023-09-23T03:10:41.270Z,96549.38
2023-09-23T03:13:09.101Z,96549.94
2023-09-23T03:15:51.670Z,96551.31
2023-09-23T03:18:35.180Z,96556.28
2023-09-23T03:21:09.947Z,96554.91
2023-09-23T03:23:41.115Z,96553.44
2023-09-23T03:26:09.931Z,96545.72
2023-09-23T03:28:38.084Z,96553.44
2023-09-23T03:31:06.557Z,96545.53
2023-09-23T03:33:34.785Z,96558.78
2023-09-23T03:36:01.519Z,96559.16
2023-09-23T03:38:30.462Z,96565.56
2023-09-23T03:41:03.445Z,96558.56
2023-09-23T03:43:30.508Z,96564.19
2023-09-23T03:45:57.452Z,96561.69
2023-09-23T03:48:24.164Z,96553.88
2023-09-23T03:50:54.922Z,96564.72
2023-09-23T03:53:22.920Z,96571.09
2023-09-23T03:55:50.970Z,96567.59
2023-09-23T03:58:20.649Z,96572.41
2023-09-23T04:00:48.499Z,96566.44
2023-09-23T04:03:28.793Z,96574.22
2023-09-23T04:05:58.777Z,96568.25
2023-09-23T04:08:25.882Z,96568.25
2023-09-23T04:10:52.542Z,96569.72
2023-09-23T04:13:19.744Z,96573.34
2023-09-23T04:15:46.372Z,96577.09
2023-09-23T04:18:12.905Z,96578.88
2023-09-23T04:20:39.501Z,96586.69
2023-09-23T04:23:06.189Z,96579.38
2023-09-23T04:25:32.705Z,96588.22
2023-09-23T04:27:59.341Z,96586.91
2023-09-23T04:30:26.408Z,96586.03
2023-09-23T04:32:53.052Z,96590.44
2023-09-23T04:35:19.752Z,96591.34
2023-09-23T04:37:46.518Z,96593.25
2023-09-23T04:40:13.877Z,96596.56
2023-09-23T04:42:44.795Z,96603.91
2023-09-23T04:45:12.640Z,96595.34
2023-09-23T04:47:41.311Z,96598.31
2023-09-23T04:50:13.888Z,96599.50
2023-09-23T04:52:42.262Z,96599.97
2023-09-23T04:55:09.295Z,96599.72
2023-09-23T04:57:37.122Z,96605.53
2023-09-23T05:00:05.962Z,96609.38
2023-09-23T05:02:32.952Z,96616.69
2023-09-23T05:04:59.960Z,96622.91
2023-09-23T05:07:27.001Z,96623.25
2023-09-23T05:09:56.763Z,96628.91
2023-09-23T05:12:24.913Z,96629.16
2023-09-23T05:14:54.065Z,96633.13
2023-09-23T05:17:22.608Z,96637.22
2023-09-23T05:19:49.426Z,96643.47
2023-09-23T05:22:16.453Z,96641.75
2023-09-23T05:24:46.767Z,96648.94
2023-09-23T05:27:13.368Z,96658.56
2023-09-23T05:29:39.926Z,96664.66
2023-09-23T05:32:06.611Z,96666.56
2023-09-23T05:34:33.824Z,96658.06
2023-09-23T05:37:00.477Z,96676.06
2023-09-23T05:39:27.096Z,96672.94
2023-09-23T05:41:54.872Z,96689.31
2023-09-23T05:44:21.555Z,96687.59
2023-09-23T05:46:49.679Z,96690.47
2023-09-23T05:49:16.567Z,96699.97
2023-09-23T05:51:44.302Z,96698.03
2023-09-23T05:54:11.012Z,96711.84
2023-09-23T05:56:37.570Z,96718.44
2023-09-23T05:59:04.625Z,96718.78
2023-09-23T06:01:31.295Z,96713.28
2023-09-23T06:03:59.241Z,96709.69
2023-09-23T06:06:25.982Z,96715.19
2023-09-23T06:08:52.603Z,96720.84
2023-09-23T06:11:19.350Z,96719.16
2023-09-23T06:13:46.333Z,96724.91
2023-09-23T06:16:13.240Z,96730.69
2023-09-23T06:18:39.862Z,96737.78
2023-09-23T06:21:07.869Z,96745.44
2023-09-23T06:23:34.689Z,96756.59
2023-09-23T06:26:03.807Z,96757.22
2023-09-23T06:28:30.992Z,96759.84
2023-09-23T06:30:57.985Z,96768.59
2023-09-23T06:33:24.887Z,96765.25
2023-09-23T06:35:51.734Z,96760.47
2023-09-23T06:38:18.559Z,96766.09
2023-09-23T06:40:45.220Z,96771.25
2023-09-23T06:43:13.355Z,96772.59
2023-09-23T06:45:40.387Z,96775.69
2023-09-23T06:48:07.296Z,96796.84
2023-09-23T06:50:34.177Z,96813.16
2023-09-23T06:53:01.983Z,96806.38
2023-09-23T06:55:28.735Z,96809.44
2023-09-23T06:57:55.694Z,96822.31
2023-09-23T07:00:22.569Z,96821.06
2023-09-23T07:02:49.735Z,96818.28
2023-09-23T07:05:16.825Z,96819.41
2023-09-23T07:07:43.566Z,96821.84
2023-09-23T07:10:11.120Z,96835.75
2023-09-23T07:12:37.763Z,96826.81
2023-09-23T07:15:04.705Z,96830.38
2023-09-23T07:17:31.469Z,96829.53
2023-09-23T07:19:58.285Z,96825.13
2023-09-23T07:22:25.141Z,96844.16
2023-09-23T07:24:51.882Z,96839.09
2023-09-23T07:27:18.423Z,96841.22
2023-09-23T07:29:45.063Z,96840.34
2023-09-23T07:32:11.750Z,96858.03
2023-09-23T07:34:38.550Z,96857.94
2023-09-23T07:37:07.850Z,96863.34
2023-09-23T07:39:34.562Z,96862.03
2023-09-23T07:42:01.080Z,96861.63
2023-09-23T07:44:27.720Z,96866.41
2023-09-23T07:46:54.271Z,96881.38
2023-09-23T07:49:20.964Z,96890.44
2023-09-23T07:51:47.875Z,96881.13
2023-09-23T07:54:14.629Z,96886.56
2023-09-23T07:56:41.626Z,96894.75
2023-09-23T07:59:08.339Z,96901.88
2023-09-23T08:01:34.995Z,96905.31
2023-09-23T08:04:01.751Z,96909.50
2023-09-23T08:06:28.337Z,96921.44
2023-09-23T08:08:54.982Z,96920.97
2023-09-23T08:11:21.497Z,96938.88
2023-09-23T08:13:48.332Z,96934.16
2023-09-23T08:16:15.148Z,96937.16
2023-09-23T08:18:42.179Z,96941.50
2023-09-23T08:21:08.785Z,96953.41
2023-09-23T08:23:35.511Z,96951.13
2023-09-23T08:26:02.256Z,96957.38
2023-09-23T08:28:28.916Z,96953.41
2023-09-23T08:30:55.483Z,96963.63
2023-09-23T08:33:22.459Z,96967.34
2023-09-23T08:35:49.330Z,96972.63
2023-09-23T08:38:16.460Z,96975.41
2023-09-23T08:40:45.445Z,96976.38
2023-09-23T08:43:12.357Z,96974.69
2023-09-23T08:45:45.710Z,96982.13
2023-09-23T08:48:14.123Z,96982.88
2023-09-23T08:50:45.394Z,96986.94
2023-09-23T08:53:14.760Z,96978.75
2023-09-23T08:55:43.458Z,96976.06
2023-09-23T08:58:10.109Z,96974.66
2023-09-23T09:00:36.699Z,96989.31
2023-09-23T09:03:03.694Z,96993.31
2023-09-23T09:05:40.984Z,96991.31
2023-09-23T09:08:08.366Z,96991.56
2023-09-23T09:10:35.270Z,96997.53
2023-09-23T09:13:06.962Z,96985.91
2023-09-23T09:15:37.781Z,96987.31
2023-09-23T09:18:05.486Z,96985.66
2023-09-23T09:20:33.202Z,96993.19
2023-09-23T09:22:59.922Z,96986.91
2023-09-23T09:25:26.845Z,96985.28
2023-09-23T09:27:53.732Z,96982.53
2023-09-23T09:30:20.845Z,96990.81
2023-09-23T09:32:48.908Z,96990.59
2023-09-23T09:35:19.610Z,97003.56
2023-09-23T09:37:47.739Z,96996.88
2023-09-23T09:40:24.127Z,96996.19
2023-09-23T09:42:55.322Z,97005.59
2023-09-23T09:45:23.725Z,97003.22
2023-09-23T09:47:54.583Z,97001.63
2023-09-23T09:50:24.448Z,97012.09
2023-09-23T09:52:51.154Z,97010.13
2023-09-23T09:55:20.117Z,97013.91
2023-09-23T09:57:53.421Z,97004.69
2023-09-23T10:00:32.210Z,97003.19
2023-09-23T10:03:03.293Z,97008.25
2023-09-23T10:05:42.092Z,97009.91
2023-09-23T10:08:14.524Z,97002.09
2023-09-23T10:10:49.156Z,97007.03
2023-09-23T10:13:16.717Z,97003.53
2023-09-23T10:15:44.456Z,97002.50
2023-09-23T10:18:13.335Z,97000.38
2023-09-23T10:20:49.537Z,97004.94
2023-09-23T10:23:18.415Z,97005.13
2023-09-23T10:25:45.396Z,97010.22
2023-09-23T10:28:32.231Z,97011.56
2023-09-23T10:31:00.952Z,97015.75
2023-09-23T10:33:28.658Z,97014.47
2023-09-23T10:35:55.824Z,97022.59
2023-09-23T10:38:26.404Z,97022.94
2023-09-23T10:40:54.999Z,97025.94
2023-09-23T10:43:25.097Z,97025.25
2023-09-23T10:45:58.041Z,97021.28
2023-09-23T10:48:26.110Z,97027.78
2023-09-23T10:50:53.178Z,97019.53
2023-09-23T10:53:22.858Z,97009.78
2023-09-23T10:55:53.064Z,97022.19
2023-09-23T10:58:20.419Z,97024.16
2023-09-23T11:00:47.835Z,97035.25
2023-09-23T11:03:20.812Z,97033.94
2023-09-23T11:05:49.001Z,97044.00
2023-09-23T11:08:19.589Z,97040.38
2023-09-23T11:10:49.110Z,97030.75
2023-09-23T11:13:17.144Z,97031.19
2023-09-23T11:15:46.587Z,97040.81
2023-09-23T11:18:15.861Z,97053.41
2023-09-23T11:20:44.498Z,97057.06
2023-09-23T11:23:11.572Z,97057.38
2023-09-23T11:25:42.896Z,97059.75
2023-09-23T11:28:21.026Z,97064.59
2023-09-23T11:30:48.981Z,97070.31
2023-09-23T11:33:15.852Z,97064.41
2023-09-23T11:35:43.365Z,97069.72
2023-09-23T11:38:11.091Z,97075.41
2023-09-23T11:40:38.989Z,97079.09
2023-09-23T11:43:06.004Z,97067.63
2023-09-23T11:45:36.072Z,97073.25
2023-09-23T11:48:05.257Z,97073.66
2023-09-23T11:50:32.101Z,97072.91
2023-09-23T11:52:58.790Z,97075.63
2023-09-23T11:55:27.049Z,97076.09
2023-09-23T11:57:55.288Z,97076.28
2023-09-23T12:00:22.024Z,97079.63
2023-09-23T12:02:49.448Z,97083.78
2023-09-23T12:05:18.306Z,97078.13
2023-09-23T12:07:45.661Z,97077.91
2023-09-23T12:10:14.928Z,97079.56
2023-09-23T12:12:44.020Z,97080.00
2023-09-23T12:15:11.158Z,97081.69
2023-09-23T12:17:39.018Z,97086.53
2023-09-23T12:20:12.881Z,97087.59
2023-09-23T12:22:40.150Z,97083.59
2023-09-23T12:25:07.807Z,97087.00
2023-09-23T12:27:35.135Z,97093.13
2023-09-23T12:30:02.061Z,97092.91
2023-09-23T12:32:29.225Z,97088.63
2023-09-23T12:34:56.018Z,97090.81
2023-09-23T12:37:22.720Z,97099.22
2023-09-23T12:39:49.333Z,97097.63
2023-09-23T12:42:16.265Z,97102.97
2023-09-23T12:44:43.311Z,97108.84
2023-09-23T12:47:10.201Z,97107.31
2023-09-23T12:49:38.085Z,97109.25
2023-09-23T12:52:06.229Z,97108.22
2023-09-23T12:54:33.358Z,97104.47
2023-09-23T12:56:59.950Z,97120.09
2023-09-23T12:59:26.652Z,97120.19
2023-09-23T13:01:53.354Z,97118.38
2023-09-23T13:04:19.969Z,97118.09
2023-09-23T13:06:46.614Z,97115.59
2023-09-23T13:09:13.293Z,97118.94
2023-09-23T13:11:40.306Z,97116.34
2023-09-23T13:14:08.579Z,97128.91
2023-09-23T13:16:35.377Z,97131.16
2023-09-23T13:19:02.108Z,97136.34
2023-09-23T13:21:28.858Z,97132.16
2023-09-23T13:23:55.502Z,97132.56
2023-09-23T13:26:22.294Z,97125.16
2023-09-23T13:28:49.351Z,97138.31
2023-09-23T13:31:16.328Z,97135.78
2023-09-23T13:33:43.572Z,97148.81
2023-09-23T13:36:10.397Z,97140.53
2023-09-23T13:38:37.126Z,97144.63
2023-09-23T13:41:05.572Z,97143.34
2023-09-23T13:43:32.252Z,97138.44
2023-09-23T13:45:59.278Z,97139.44
2023-09-23T13:48:26.071Z,97140.00
2023-09-23T13:50:52.878Z,97143.06
2023-09-23T13:53:21.705Z,97151.44
2023-09-23T13:55:48.430Z,97148.22
2023-09-23T13:58:15.812Z,97154.69
2023-09-23T14:00:42.493Z,97152.31
2023-09-23T14:03:09.509Z,97155.81
2023-09-23T14:05:36.274Z,97158.31
2023-09-23T14:08:03.143Z,97153.81
2023-09-23T14:10:30.247Z,97157.56
2023-09-23T14:12:57.146Z,97168.72
2023-09-23T14:15:23.992Z,97155.94
2023-09-23T14:17:50.767Z,97161.13
2023-09-23T14:20:17.550Z,97163.91
2023-09-23T14:22:46.912Z,97163.47
2023-09-23T14:25:15.286Z,97176.53
2023-09-23T14:27:42.437Z,97177.34
2023-09-23T14:30:09.619Z,97174.09
2023-09-23T14:32:36.978Z,97171.59
2023-09-23T14:35:04.223Z,97174.16
2023-09-23T14:37:33.661Z,97176.91
2023-09-23T14:40:01.405Z,97173.03
2023-09-23T14:42:28.481Z,97169.66
2023-09-23T14:44:55.224Z,97172.38
2023-09-23T14:47:22.285Z,97177.53
2023-09-23T14:49:49.024Z,97186.00
2023-09-23T14:52:15.695Z,97189.75
2023-09-23T14:54:42.932Z,97191.06
2023-09-23T14:57:09.806Z,97188.69
2023-09-23T14:59:37.029Z,97193.78
2023-09-23T15:02:04.356Z,97186.44
2023-09-23T15:04:31.969Z,97186.13
2023-09-23T15:07:00.687Z,97193.63
2023-09-23T15:09:28.021Z,97203.34
2023-09-23T15:11:54.961Z,97197.47
2023-09-23T15:14:21.721Z,97204.25
2023-09-23T15:16:50.796Z,97207.94
2023-09-23T15:19:20.293Z,97204.72
2023-09-23T15:21:47.655Z,97207.38
2023-09-23T15:24:18.393Z,97210.31
2023-09-23T15:26:45.277Z,97217.09
2023-09-23T15:29:12.330Z,97219.59
2023-09-23T15:31:39.016Z,97213.69
2023-09-23T15:34:06.481Z,97225.47
2023-09-23T15:36:33.860Z,97223.94
2023-09-23T15:39:00.534Z,97229.81
2023-09-23T15:41:27.242Z,97233.91
2023-09-23T15:43:54.249Z,97235.91
2023-09-23T15:46:21.198Z,97238.66
2023-09-23T15:48:48.365Z,97239.00
2023-09-23T15:51:20.765Z,97247.25
2023-09-23T15:53:47.682Z,97245.13
2023-09-23T15:56:14.607Z,97244.50
2023-09-23T15:58:41.324Z,97254.09
2023-09-23T16:01:08.323Z,97252.13
2023-09-23T16:03:35.672Z,97253.88
2023-09-23T16:06:03.081Z,97260.75
2023-09-23T16:08:30.006Z,97256.84
2023-09-23T16:10:56.747Z,97257.06
2023-09-23T16:13:23.425Z,97261.84
2023-09-23T16:15:50.408Z,97262.75
2023-09-23T16:18:19.295Z,97270.91
2023-09-23T16:20:47.789Z,97271.19
2023-09-23T16:23:14.494Z,97276.69
2023-09-23T16:25:41.134Z,97280.91
2023-09-23T16:28:08.202Z,97279.91
2023-09-23T16:30:34.956Z,97283.34
2023-09-23T16:33:01.668Z,97288.16
2023-09-23T16:35:28.428Z,97292.06
2023-09-23T16:37:55.060Z,97303.22
2023-09-23T16:40:22.567Z,97306.81
2023-09-23T16:42:49.217Z,97312.63
2023-09-23T16:45:16.112Z,97311.78
2023-09-23T16:47:42.834Z,97314.34
2023-09-23T16:50:10.022Z,97319.66
2023-09-23T16:52:36.759Z,97323.38
2023-09-23T16:55:03.631Z,97326.28
2023-09-23T16:57:30.336Z,97332.78
2023-09-23T16:59:58.414Z,97327.97
2023-09-23T17:02:25.175Z,97341.84
2023-09-23T17:04:52.391Z,97334.94
2023-09-23T17:07:19.583Z,97343.16
2023-09-23T17:09:46.478Z,97347.03
2023-09-23T17:12:14.012Z,97348.03
2023-09-23T17:14:41.042Z,97356.13
2023-09-23T17:17:08.491Z,97362.00
2023-09-23T17:19:35.519Z,97358.66
2023-09-23T17:22:02.251Z,97361.50
2023-09-23T17:24:30.494Z,97371.28
2023-09-23T17:26:57.582Z,97364.72
2023-09-23T17:29:24.502Z,97374.91
2023-09-23T17:31:51.392Z,97386.53
2023-09-23T17:34:18.174Z,97382.16
2023-09-23T17:36:44.935Z,97371.00
2023-09-23T17:39:12.076Z,97379.97
2023-09-23T17:41:39.282Z,97386.63
2023-09-23T17:44:06.939Z,97390.88
2023-09-23T17:46:34.215Z,97396.63
2023-09-23T17:49:00.930Z,97397.63
2023-09-23T17:51:27.858Z,97411.53
2023-09-23T17:53:54.603Z,97415.00
2023-09-23T17:56:23.222Z,97420.50
2023-09-23T17:58:50.297Z,97422.63
2023-09-23T18:01:17.226Z,97421.34
2023-09-23T18:03:44.152Z,97433.69
2023-09-23T18:06:11.100Z,97439.63
2023-09-23T18:08:37.809Z,97434.44
2023-09-23T18:11:04.506Z,97445.97
2023-09-23T18:13:32.765Z,97455.28
2023-09-23T18:15:59.409Z,97454.44
2023-09-23T18:18:27.989Z,97458.94
2023-09-23T18:20:55.927Z,97462.25
2023-09-23T18:23:23.027Z,97474.59
2023-09-23T18:25:49.947Z,97475.28
2023-09-23T18:28:16.647Z,97468.56
2023-09-23T18:30:43.207Z,97472.25
2023-09-23T18:33:10.073Z,97478.09
2023-09-23T18:35:36.962Z,97488.66
2023-09-23T18:38:04.111Z,97487.94
2023-09-23T18:40:31.359Z,97484.22
2023-09-23T18:42:58.043Z,97486.28
2023-09-23T18:45:24.590Z,97485.50
2023-09-23T18:48:00.531Z,97494.34
2023-09-23T18:50:38.175Z,97496.59
2023-09-23T18:53:05.062Z,97494.66
2023-09-23T18:55:31.695Z,97506.66
2023-09-23T18:57:58.557Z,97506.94
2023-09-23T19:00:25.459Z,97513.22
2023-09-23T19:02:52.203Z,97518.47
2023-09-23T19:05:19.102Z,97523.31
2023-09-23T19:07:45.859Z,97522.06
2023-09-23T19:10:13.815Z,97532.19
2023-09-23T19:12:40.459Z,97534.06
2023-09-23T19:15:07.403Z,97543.72
2023-09-23T19:17:34.989Z,97547.44
2023-09-23T19:20:01.990Z,97554.97
2023-09-23T19:22:28.883Z,97549.69
2023-09-23T19:24:55.728Z,97555.03
2023-09-23T19:27:22.383Z,97561.19
2023-09-23T19:29:51.029Z,97562.97
2023-09-23T19:32:17.934Z,97567.06
2023-09-23T19:34:45.093Z,97573.22
2023-09-23T19:37:11.918Z,97570.41
2023-09-23T19:39:38.696Z,97575.41
2023-09-23T19:42:05.484Z,97579.28
2023-09-23T19:44:33.025Z,97583.59
2023-09-23T19:47:02.048Z,97578.97
2023-09-23T19:49:29.201Z,97578.28
2023-09-23T19:51:56.443Z,97585.50
2023-09-23T19:54:27.322Z,97584.69
2023-09-23T19:56:54.629Z,97578.16
2023-09-23T19:59:21.281Z,97580.34
2023-09-23T20:01:48.323Z,97586.31
2023-09-23T20:04:15.346Z,97587.69
2023-09-23T20:06:43.226Z,97589.78
2023-09-23T20:09:10.540Z,97594.84
2023-09-23T20:11:37.507Z,97597.63
2023-09-23T20:14:04.707Z,97594.91
2023-09-23T20:16:33.032Z,97596.25
2023-09-23T20:19:00.352Z,97602.59
2023-09-23T20:21:28.587Z,97606.00
2023-09-23T20:23:55.345Z,97603.38
2023-09-23T20:26:22.028Z,97609.16
2023-09-23T20:28:49.306Z,97614.84
2023-09-23T20:31:16.815Z,97612.00
2023-09-23T20:33:44.076Z,97616.53
2023-09-23T20:36:10.946Z,97621.69
2023-09-23T20:38:40.229Z,97618.47
2023-09-23T20:41:10.725Z,97622.69
2023-09-23T20:43:39.167Z,97623.34
2023-09-23T20:46:11.328Z,97623.16
2023-09-23T20:48:38.144Z,97637.84
2023-09-23T20:51:05.157Z,97632.16
2023-09-23T20:53:35.786Z,97639.81
2023-09-23T20:56:06.721Z,97645.59
2023-09-23T20:58:34.483Z,97646.59
2023-09-23T21:01:01.862Z,97658.56
2023-09-23T21:03:28.737Z,97659.16
2023-09-23T21:05:55.724Z,97661.56
2023-09-23T21:08:22.750Z,97663.81
2023-09-23T21:10:49.426Z,97661.97
2023-09-23T21:13:16.061Z,97666.47
2023-09-23T21:15:42.883Z,97671.00
2023-09-23T21:18:10.788Z,97681.19
2023-09-23T21:20:38.457Z,97678.13
2023-09-23T21:23:05.471Z,97670.28
2023-09-23T21:25:32.467Z,97674.63
2023-09-23T21:27:59.358Z,97670.03
2023-09-23T21:30:26.064Z,97669.09
2023-09-23T21:32:52.766Z,97677.38
2023-09-23T21:35:19.655Z,97682.16
2023-09-23T21:37:46.248Z,97685.84
2023-09-23T21:40:13.165Z,97678.06
2023-09-23T21:42:39.819Z,97694.94
2023-09-23T21:45:06.775Z,97691.47
2023-09-23T21:47:33.495Z,97687.78
2023-09-23T21:50:00.183Z,97695.22
2023-09-23T21:52:27.267Z,97699.91
2023-09-23T21:54:53.958Z,97709.91
2023-09-23T21:57:20.733Z,97722.16
2023-09-23T21:59:47.331Z,97715.13
2023-09-23T22:02:14.496Z,97714.94
2023-09-23T22:04:41.690Z,97714.25
2023-09-23T22:07:08.778Z,97718.69
2023-09-23T22:09:35.537Z,97724.56
2023-09-23T22:12:02.397Z,97717.25
2023-09-23T22:14:29.214Z,97713.25
2023-09-23T22:16:56.140Z,97727.59
2023-09-23T22:19:24.004Z,97734.41
2023-09-23T22:21:52.703Z,97721.47
2023-09-23T22:24:22.457Z,97726.50
2023-09-23T22:26:54.576Z,97735.09
2023-09-23T22:29:21.810Z,97722.06
2023-09-23T22:31:51.261Z,97729.03
2023-09-23T22:34:19.264Z,97728.31
2023-09-23T22:36:46.506Z,97732.09
2023-09-23T22:39:14.128Z,97733.94
2023-09-23T22:41:41.359Z,97735.06
2023-09-23T22:44:08.554Z,97734.38
2023-09-23T22:46:36.902Z,97727.13
2023-09-23T22:49:03.999Z,97729.91
2023-09-23T22:51:31.869Z,97733.31
2023-09-23T22:53:59.072Z,97733.19
2023-09-23T22:56:26.707Z,97735.75
2023-09-23T22:58:53.365Z,97737.22
2023-09-23T23:01:20.456Z,97739.72
2023-09-23T23:03:58.196Z,97738.13
2023-09-23T23:06:24.949Z,97731.53
2023-09-23T23:08:54.289Z,97738.44
2023-09-23T23:11:21.807Z,97748.69
2023-09-23T23:13:49.477Z,97744.19
2023-09-23T23:16:19.747Z,97736.81
2023-09-23T23:18:46.473Z,97748.13
2023-09-23T23:21:13.064Z,97749.13
2023-09-23T23:23:39.790Z,97743.47
2023-09-23T23:26:07.456Z,97748.06
2023-09-23T23:28:37.606Z,97751.06
2023-09-23T23:31:05.675Z,97743.09
2023-09-23T23:33:32.751Z,97745.44
2023-09-23T23:36:00.337Z,97747.38
2023-09-23T23:38:28.203Z,97743.56
2023-09-23T23:40:55.349Z,97751.41
2023-09-23T23:43:25.809Z,97746.28
2023-09-23T23:46:03.080Z,97750.66
2023-09-23T23:48:30.950Z,97744.81
2023-09-23T23:51:10.589Z,97747.53
2023-09-23T23:53:37.304Z,97757.97
2023-09-23T23:56:10.376Z,97762.19
2023-09-23T23:58:40.074Z,97753.59
